createdAt,value
2018-08-08T00:00:13.760Z,2.40
2018-08-08T00:02:42.614Z,2.20
2018-08-08T00:05:10.875Z,2.30
2018-08-08T00:07:39.955Z,2.40
2018-08-08T00:10:08.289Z,2.80
2018-08-08T00:12:36.201Z,3.00
2018-08-08T00:15:06.208Z,2.57
2018-08-08T00:17:34.726Z,2.70
2018-08-08T00:20:04.127Z,2.30
2018-08-08T00:22:38.470Z,2.70
2018-08-08T00:25:09.151Z,2.77
2018-08-08T00:27:38.704Z,2.67
2018-08-08T00:30:08.771Z,3.00
2018-08-08T00:32:38.185Z,3.33
2018-08-08T00:35:06.435Z,2.80
2018-08-08T00:37:34.779Z,2.53
2018-08-08T00:40:03.147Z,2.70
2018-08-08T00:42:31.774Z,3.17
2018-08-08T00:45:01.727Z,2.50
2018-08-08T00:47:29.899Z,2.77
2018-08-08T00:49:59.065Z,2.57
2018-08-08T00:52:27.174Z,2.10
2018-08-08T00:54:55.886Z,2.63
2018-08-08T00:57:26.107Z,2.73
2018-08-08T00:59:54.256Z,2.80
2018-08-08T01:02:23.369Z,2.10
2018-08-08T01:04:52.771Z,2.63
2018-08-08T01:07:20.525Z,2.47
2018-08-08T01:09:50.688Z,3.37
2018-08-08T01:12:20.275Z,2.97
2018-08-08T01:14:49.557Z,2.50
2018-08-08T01:17:19.112Z,2.50
2018-08-08T01:19:47.174Z,2.63
2018-08-08T01:22:15.650Z,2.60
2018-08-08T01:24:44.472Z,2.30
2018-08-08T01:27:12.337Z,2.57
2018-08-08T01:29:40.760Z,2.40
2018-08-08T01:32:10.223Z,2.73
2018-08-08T01:34:37.950Z,2.63
2018-08-08T01:37:05.826Z,2.80
2018-08-08T01:39:33.610Z,3.03
2018-08-08T01:42:01.475Z,2.80
2018-08-08T01:44:29.460Z,2.70
2018-08-08T01:46:57.392Z,2.87
2018-08-08T01:49:25.223Z,3.10
2018-08-08T01:51:53.528Z,3.07
2018-08-08T01:54:22.419Z,2.70
2018-08-08T01:56:51.226Z,2.57
2018-08-08T01:59:21.023Z,3.27
2018-08-08T02:01:49.184Z,3.00
2018-08-08T02:04:17.278Z,2.47
2018-08-08T02:06:46.519Z,2.77
2018-08-08T02:09:14.703Z,2.67
2018-08-08T02:11:42.606Z,2.00
2018-08-08T02:14:11.522Z,2.60
2018-08-08T02:16:39.671Z,2.87
2018-08-08T02:19:07.655Z,3.27
2018-08-08T02:21:35.870Z,2.73
2018-08-08T02:24:04.416Z,2.63
2018-08-08T02:26:32.907Z,2.37
2018-08-08T02:29:00.833Z,2.67
2018-08-08T02:31:28.493Z,2.70
2018-08-08T02:33:57.083Z,2.83
2018-08-08T02:36:24.916Z,2.90
2018-08-08T02:38:52.976Z,2.60
2018-08-08T02:41:20.646Z,2.67
2018-08-08T02:43:48.467Z,3.90
2018-08-08T02:46:16.120Z,2.80
2018-08-08T02:48:44.076Z,2.83
2018-08-08T02:51:11.862Z,2.60
2018-08-08T02:53:39.627Z,3.00
2018-08-08T02:56:07.386Z,3.07
2018-08-08T02:58:35.228Z,2.17
2018-08-08T03:01:03.299Z,2.67
2018-08-08T03:03:31.168Z,2.60
2018-08-08T03:05:58.858Z,2.90
2018-08-08T03:08:26.787Z,2.50
2018-08-08T03:10:54.468Z,2.70
2018-08-08T03:13:22.453Z,2.43
2018-08-08T03:15:50.226Z,2.93
2018-08-08T03:18:18.013Z,2.63
2018-08-08T03:20:45.743Z,2.90
2018-08-08T03:23:13.596Z,2.50
2018-08-08T03:25:41.338Z,2.57
2018-08-08T03:28:08.998Z,2.63
2018-08-08T03:30:36.764Z,3.00
2018-08-08T03:33:04.544Z,2.77
2018-08-08T03:35:32.290Z,2.63
2018-08-08T03:38:00.079Z,2.93
2018-08-08T03:40:28.248Z,3.37
2018-08-08T03:42:56.703Z,2.63
2018-08-08T03:45:24.595Z,2.90
2018-08-08T03:47:52.262Z,2.70
2018-08-08T03:50:20.011Z,2.60
2018-08-08T03:52:47.769Z,2.87
2018-08-08T03:55:15.641Z,2.67
2018-08-08T03:57:43.377Z,2.43
2018-08-08T04:00:11.876Z,2.83
2018-08-08T04:02:39.872Z,2.60
2018-08-08T04:06:20.127Z,3.30
2018-08-08T04:08:48.246Z,3.10
2018-08-08T04:11:17.309Z,3.40
2018-08-08T04:13:46.574Z,2.77
2018-08-08T04:16:15.386Z,3.40
2018-08-08T04:18:43.889Z,3.10
2018-08-08T04:21:13.602Z,3.07
2018-08-08T04:23:42.771Z,2.90
2018-08-08T04:26:11.137Z,3.03
2018-08-08T04:28:39.337Z,3.03
2018-08-08T04:31:07.084Z,3.10
2018-08-08T04:33:34.719Z,3.13
2018-08-08T04:36:02.501Z,3.37
2018-08-08T04:38:31.611Z,2.83
2018-08-08T04:41:00.283Z,2.97
2018-08-08T04:43:30.234Z,3.13
2018-08-08T04:45:57.937Z,2.90
2018-08-08T04:48:28.703Z,2.90
2018-08-08T04:50:56.950Z,3.20
2018-08-08T04:53:24.909Z,3.13
2018-08-08T04:55:52.801Z,3.37
2018-08-08T04:58:20.692Z,3.10
2018-08-08T05:00:48.467Z,2.73
2018-08-08T05:03:16.135Z,3.13
2018-08-08T05:05:43.957Z,3.10
2018-08-08T05:08:11.807Z,3.17
2018-08-08T05:10:39.975Z,4.20
2018-08-08T05:13:07.699Z,4.30
2018-08-08T05:15:37.179Z,3.23
2018-08-08T05:18:07.435Z,3.37
2018-08-08T05:20:35.132Z,3.70
2018-08-08T05:23:03.046Z,4.03
2018-08-08T05:25:32.213Z,3.33
2018-08-08T05:28:00.571Z,3.47
2018-08-08T05:30:29.459Z,3.80
2018-08-08T05:32:58.173Z,4.20
2018-08-08T05:35:25.932Z,3.80
2018-08-08T05:37:53.598Z,3.57
2018-08-08T05:40:23.003Z,3.30
2018-08-08T05:42:52.216Z,4.37
2018-08-08T05:45:20.366Z,3.67
2018-08-08T05:47:50.105Z,3.70
2018-08-08T05:50:18.022Z,3.83
2018-08-08T05:52:45.938Z,4.03
2018-08-08T05:55:14.856Z,3.60
2018-08-08T05:57:43.188Z,3.50
2018-08-08T06:00:27.297Z,3.50
2018-08-08T06:02:54.973Z,3.90
2018-08-08T06:05:22.698Z,3.97
2018-08-08T06:07:50.898Z,3.87
2018-08-08T06:10:18.659Z,3.90
2018-08-08T06:12:46.586Z,3.80
2018-08-08T06:15:15.766Z,3.90
2018-08-08T06:17:43.795Z,3.90
2018-08-08T06:20:13.831Z,3.60
2018-08-08T06:22:42.725Z,3.70
2018-08-08T06:25:10.416Z,3.87
2018-08-08T06:27:39.121Z,4.10
2018-08-08T06:30:09.670Z,4.47
2018-08-08T06:32:37.467Z,4.10
2018-08-08T06:35:05.742Z,4.37
2018-08-08T06:37:33.716Z,4.20
2018-08-08T06:40:01.350Z,3.83
2018-08-08T06:42:29.059Z,4.70
2018-08-08T06:45:02.325Z,3.97
2018-08-08T06:47:31.025Z,4.33
2018-08-08T06:49:58.812Z,3.80
2018-08-08T06:52:26.475Z,3.83
2018-08-08T06:54:54.071Z,4.30
2018-08-08T06:57:21.837Z,4.50
2018-08-08T06:59:49.648Z,4.67
2018-08-08T07:02:17.311Z,5.00
2018-08-08T07:04:45.044Z,4.73
2018-08-08T07:07:12.768Z,4.73
2018-08-08T07:09:40.393Z,4.30
2018-08-08T07:12:08.121Z,5.10
2018-08-08T07:14:35.802Z,4.37
2018-08-08T07:17:03.489Z,4.23
2018-08-08T07:19:31.279Z,5.07
2018-08-08T07:21:59.367Z,4.13
2018-08-08T07:24:27.142Z,5.00
2018-08-08T07:26:58.654Z,4.80
2018-08-08T07:29:28.622Z,4.40
2018-08-08T07:31:56.710Z,4.70
2018-08-08T07:34:24.350Z,5.63
2018-08-08T07:36:52.106Z,5.30
2018-08-08T07:39:20.052Z,5.40
2018-08-08T07:41:50.114Z,5.20
2018-08-08T07:44:17.877Z,5.30
2018-08-08T07:46:46.210Z,5.07
2018-08-08T07:49:14.104Z,5.50
2018-08-08T07:51:42.223Z,5.17
2018-08-08T07:54:11.384Z,5.87
2018-08-08T07:56:39.168Z,5.53
2018-08-08T07:59:06.808Z,5.30
2018-08-08T08:01:34.446Z,4.40
2018-08-08T08:04:02.238Z,5.43
2018-08-08T08:06:30.016Z,4.93
2018-08-08T08:08:57.776Z,5.73
2018-08-08T08:11:25.522Z,5.33
2018-08-08T08:13:53.163Z,5.77
2018-08-08T08:16:21.151Z,5.57
2018-08-08T08:18:49.044Z,5.53
2018-08-08T08:21:16.733Z,5.87
2018-08-08T08:23:44.562Z,5.77
2018-08-08T08:26:12.427Z,6.30
2018-08-08T08:28:40.788Z,5.90
2018-08-08T08:31:08.553Z,7.30
2018-08-08T08:33:36.315Z,6.30
2018-08-08T08:36:04.186Z,5.60
2018-08-08T08:38:31.740Z,5.60
2018-08-08T08:40:59.416Z,5.67
2018-08-08T08:43:27.083Z,5.80
2018-08-08T08:45:54.679Z,5.57
2018-08-08T08:48:22.387Z,5.20
2018-08-08T08:50:50.079Z,4.90
2018-08-08T08:53:17.807Z,6.03
2018-08-08T08:55:45.469Z,5.50
2018-08-08T08:58:13.178Z,6.00
2018-08-08T09:00:40.953Z,6.07
2018-08-08T09:03:08.649Z,6.53
2018-08-08T09:05:36.388Z,6.60
2018-08-08T09:08:04.199Z,6.07
2018-08-08T09:10:31.841Z,5.83
2018-08-08T09:12:59.593Z,5.73
2018-08-08T09:15:27.330Z,5.60
2018-08-08T09:17:55.122Z,5.70
2018-08-08T09:20:22.958Z,4.93
2018-08-08T09:22:50.595Z,6.27
2018-08-08T09:25:18.879Z,5.90
2018-08-08T09:27:46.718Z,6.00
2018-08-08T09:30:14.388Z,6.00
2018-08-08T09:32:43.253Z,6.30
2018-08-08T09:35:11.099Z,6.40
2018-08-08T09:37:39.287Z,6.53
2018-08-08T09:40:08.994Z,5.73
2018-08-08T09:42:36.739Z,5.63
2018-08-08T09:45:05.483Z,5.97
2018-08-08T09:47:33.559Z,6.00
2018-08-08T09:50:01.176Z,5.93
2018-08-08T09:52:29.235Z,6.47
2018-08-08T09:54:56.999Z,5.93
2018-08-08T09:57:24.807Z,5.50
2018-08-08T09:59:52.646Z,6.97
2018-08-08T10:02:26.057Z,6.60
2018-08-08T10:04:53.990Z,6.20
2018-08-08T10:07:21.768Z,5.63
2018-08-08T10:09:49.409Z,5.53
2018-08-08T10:12:17.096Z,7.07
2018-08-08T10:14:44.732Z,6.17
2018-08-08T10:17:12.554Z,6.40
2018-08-08T10:19:40.366Z,5.87
2018-08-08T10:22:08.176Z,6.10
2018-08-08T10:24:35.879Z,5.97
2018-08-08T10:27:03.702Z,6.37
2018-08-08T10:29:31.373Z,6.87
2018-08-08T10:31:59.429Z,7.20
2018-08-08T10:34:27.063Z,6.50
2018-08-08T10:36:54.805Z,7.37
2018-08-08T10:39:22.680Z,7.17
2018-08-08T10:41:50.444Z,7.03
2018-08-08T10:44:18.330Z,7.10
2018-08-08T10:46:46.163Z,7.47
2018-08-08T10:49:13.943Z,6.67
2018-08-08T10:51:41.797Z,8.20
2018-08-08T10:54:09.585Z,6.63
2018-08-08T10:56:37.289Z,7.40
2018-08-08T10:59:04.984Z,6.83
2018-08-08T11:01:32.764Z,6.77
2018-08-08T11:04:00.741Z,7.27
2018-08-08T11:06:28.690Z,7.43
2018-08-08T11:08:56.604Z,8.47
2018-08-08T11:11:24.252Z,7.93
2018-08-08T11:13:51.975Z,8.53
2018-08-08T11:16:20.216Z,8.50
2018-08-08T11:18:47.916Z,7.10
2018-08-08T11:21:15.777Z,7.53
2018-08-08T11:23:43.760Z,7.70
2018-08-08T11:26:11.625Z,7.60
2018-08-08T11:28:40.276Z,7.73
2018-08-08T11:31:08.245Z,6.60
2018-08-08T11:33:35.938Z,6.33
2018-08-08T11:36:03.797Z,7.53
2018-08-08T11:38:31.720Z,7.00
2018-08-08T11:40:59.484Z,7.63
2018-08-08T11:43:27.137Z,6.83
2018-08-08T11:45:55.330Z,7.47
2018-08-08T11:48:23.235Z,7.30
2018-08-08T11:50:50.914Z,7.43
2018-08-08T11:53:18.599Z,6.80
2018-08-08T11:55:46.442Z,6.83
2018-08-08T11:58:14.209Z,6.60
2018-08-08T12:00:42.042Z,7.30
2018-08-08T12:03:09.827Z,7.27
2018-08-08T12:05:37.783Z,6.43
2018-08-08T12:08:05.661Z,7.33
2018-08-08T12:10:33.304Z,6.83
2018-08-08T12:13:01.383Z,6.90
2018-08-08T12:15:29.303Z,7.30
2018-08-08T12:17:57.256Z,6.77
2018-08-08T12:20:25.177Z,6.77
2018-08-08T12:22:52.962Z,6.57
2018-08-08T12:25:20.599Z,6.80
2018-08-08T12:27:48.286Z,7.83
2018-08-08T12:30:16.242Z,6.23
2018-08-08T12:32:44.100Z,7.47
2018-08-08T12:35:12.366Z,7.50
2018-08-08T12:37:41.410Z,7.90
2018-08-08T12:40:09.637Z,6.80
2018-08-08T12:42:37.520Z,7.80
2018-08-08T12:45:08.399Z,7.30
2018-08-08T12:47:36.234Z,6.87
2018-08-08T12:50:04.541Z,7.53
2018-08-08T12:52:32.155Z,6.73
2018-08-08T12:54:59.815Z,7.00
2018-08-08T12:57:27.741Z,7.67
2018-08-08T12:59:55.692Z,6.47
2018-08-08T13:02:23.516Z,7.00
2018-08-08T13:04:51.186Z,7.20
2018-08-08T13:07:19.081Z,7.83
2018-08-08T13:09:46.890Z,7.30
2018-08-08T13:12:14.619Z,6.93
2018-08-08T13:14:42.487Z,8.23
2018-08-08T13:17:10.210Z,7.17
2018-08-08T13:19:39.386Z,7.30
2018-08-08T13:22:07.221Z,7.57
2018-08-08T13:24:35.150Z,7.97
2018-08-08T13:27:02.988Z,7.70
2018-08-08T13:29:31.049Z,7.50
2018-08-08T13:31:59.663Z,8.13
2018-08-08T13:34:27.422Z,8.07
2018-08-08T13:36:56.306Z,7.90
2018-08-08T13:39:24.419Z,8.10
2018-08-08T13:41:52.063Z,7.33
2018-08-08T13:44:19.936Z,7.97
2018-08-08T13:46:47.929Z,8.10
2018-08-08T13:49:15.914Z,7.80
2018-08-08T13:51:43.876Z,8.70
2018-08-08T13:54:11.646Z,7.87
2018-08-08T13:56:39.439Z,8.13
2018-08-08T13:59:07.409Z,8.97
2018-08-08T14:01:35.436Z,7.63
2018-08-08T14:04:03.458Z,8.20
2018-08-08T14:06:31.323Z,8.57
2018-08-08T14:08:59.206Z,8.30
2018-08-08T14:11:26.987Z,8.10
2018-08-08T14:13:55.194Z,7.40
2018-08-08T14:16:22.910Z,8.57
2018-08-08T14:18:50.660Z,7.27
2018-08-08T14:21:18.390Z,8.13
2018-08-08T14:23:48.095Z,7.00
2018-08-08T14:26:15.788Z,6.70
2018-08-08T14:28:47.658Z,7.10
2018-08-08T14:31:15.657Z,7.23
2018-08-08T14:33:43.607Z,7.03
2018-08-08T14:36:11.333Z,7.73
2018-08-08T14:38:39.130Z,6.67
2018-08-08T14:41:06.997Z,7.00
2018-08-08T14:43:34.757Z,6.50
2018-08-08T14:46:02.590Z,6.67
2018-08-08T14:48:30.293Z,6.20
2018-08-08T14:50:58.520Z,6.03
2018-08-08T14:53:26.204Z,5.30
2018-08-08T14:55:54.047Z,5.20
2018-08-08T14:58:21.929Z,4.93
2018-08-08T15:00:50.694Z,5.40
2018-08-08T15:03:18.925Z,5.47
2018-08-08T15:05:47.083Z,4.60
2018-08-08T15:08:14.915Z,4.90
2018-08-08T15:10:42.850Z,3.97
2018-08-08T15:13:13.874Z,4.27
2018-08-08T15:15:41.874Z,3.37
2018-08-08T15:18:09.889Z,6.60
2018-08-08T15:20:37.849Z,3.63
2018-08-08T15:23:05.962Z,4.30
2018-08-08T15:25:34.917Z,4.70
2018-08-08T15:28:03.609Z,4.13
2018-08-08T15:30:31.620Z,4.87
2018-08-08T15:32:59.675Z,4.80
2018-08-08T15:35:27.635Z,4.77
2018-08-08T15:37:55.402Z,4.00
2018-08-08T15:40:24.015Z,4.00
2018-08-08T15:42:51.891Z,4.23
2018-08-08T15:55:09.721Z,4.90
2018-08-08T15:57:37.453Z,4.30
2018-08-08T16:00:06.574Z,4.30
2018-08-08T16:02:34.304Z,4.30
2018-08-08T16:05:02.010Z,4.00
2018-08-08T16:07:29.806Z,4.70
2018-08-08T16:09:57.758Z,4.47
2018-08-08T16:12:25.622Z,5.17
2018-08-08T16:14:53.436Z,4.30
2018-08-08T16:17:21.122Z,4.43
2018-08-08T16:19:49.120Z,4.37
2018-08-08T16:22:16.721Z,4.70
2018-08-08T16:24:44.491Z,4.33
2018-08-08T16:27:12.287Z,4.80
2018-08-08T16:29:40.061Z,4.77
2018-08-08T16:32:07.998Z,5.30
2018-08-08T16:34:36.090Z,5.40
2018-08-08T16:37:03.862Z,4.43
2018-08-08T16:39:31.710Z,5.33
2018-08-08T16:41:59.255Z,4.60
2018-08-08T16:44:26.895Z,4.70
2018-08-08T16:46:54.761Z,5.40
2018-08-08T16:49:22.681Z,4.90
2018-08-08T16:51:50.314Z,4.50
2018-08-08T16:54:18.019Z,5.17
2018-08-08T16:56:45.719Z,5.30
2018-08-08T17:01:40.664Z,4.80
2018-08-08T17:04:08.865Z,4.60
2018-08-08T17:06:36.760Z,4.93
2018-08-08T17:13:58.648Z,5.50
2018-08-08T17:16:27.752Z,5.45
2018-08-08T17:18:56.003Z,5.20
2018-08-08T17:21:23.594Z,5.30
2018-08-08T17:23:51.360Z,5.67
2018-08-08T17:26:18.996Z,5.50
2018-08-08T17:28:46.711Z,5.00
2018-08-08T17:31:14.910Z,5.50
2018-08-08T17:33:42.866Z,5.23
2018-08-08T17:36:10.753Z,4.90
2018-08-08T17:38:39.889Z,4.70
2018-08-08T17:41:07.847Z,4.73
2018-08-08T17:43:35.825Z,5.90
2018-08-08T17:46:03.411Z,5.30
2018-08-08T17:48:31.169Z,4.70
2018-08-08T17:50:58.962Z,5.90
2018-08-08T17:53:26.786Z,5.57
2018-08-08T17:55:54.646Z,5.30
2018-08-08T17:58:23.466Z,5.40
2018-08-08T18:00:51.129Z,5.50
2018-08-08T18:03:19.311Z,5.20
2018-08-08T18:05:47.185Z,4.73
2018-08-08T18:08:17.761Z,4.93
2018-08-08T18:10:46.351Z,4.30
2018-08-08T18:13:14.066Z,4.70
2018-08-08T18:15:42.497Z,4.57
2018-08-08T18:18:10.516Z,4.43
2018-08-08T18:20:39.270Z,6.03
2018-08-08T18:23:09.910Z,4.10
2018-08-08T18:25:37.771Z,4.90
2018-08-08T18:28:05.487Z,5.53
2018-08-08T18:30:33.864Z,5.50
2018-08-08T18:33:01.852Z,5.10
2018-08-08T18:35:29.636Z,5.10
2018-08-08T18:37:57.599Z,5.47
2018-08-08T18:40:25.877Z,5.07
2018-08-08T18:42:54.128Z,5.40
2018-08-08T18:45:22.252Z,5.80
2018-08-08T18:47:51.450Z,5.43
2018-08-08T18:50:19.244Z,5.60
2018-08-08T18:52:47.121Z,5.30
2018-08-08T18:55:14.769Z,6.20
2018-08-08T18:57:42.527Z,5.80
2018-08-08T19:00:10.685Z,6.40
2018-08-08T19:02:38.748Z,5.30
2018-08-08T19:05:06.831Z,5.27
2018-08-08T19:07:34.997Z,4.73
2018-08-08T19:10:03.627Z,6.20
2018-08-08T19:12:31.555Z,5.80
2018-08-08T19:14:59.387Z,5.63
2018-08-08T19:17:27.119Z,5.57
2018-08-08T19:19:54.867Z,5.73
2018-08-08T19:22:22.771Z,5.60
2018-08-08T19:24:51.041Z,8.37
2018-08-08T19:27:19.485Z,7.63
2018-08-08T19:29:47.118Z,7.50
2018-08-08T19:32:14.962Z,10.60
2018-08-08T19:34:42.661Z,10.00
2018-08-08T19:37:10.488Z,6.87
2018-08-08T19:39:38.184Z,8.47
2018-08-08T19:42:05.944Z,11.73
2018-08-08T19:44:33.630Z,8.60
2018-08-08T19:47:01.576Z,11.67
2018-08-08T19:49:29.252Z,11.27
2018-08-08T19:51:56.926Z,10.50
2018-08-08T19:54:24.619Z,10.40
2018-08-08T19:56:52.237Z,13.70
2018-08-08T19:59:21.740Z,12.10
2018-08-08T20:01:49.761Z,11.93
2018-08-08T20:04:17.482Z,10.40
2018-08-08T20:06:45.139Z,10.20
2018-08-08T20:09:12.923Z,6.73
2018-08-08T20:11:40.980Z,9.40
2018-08-08T20:14:08.813Z,10.60
2018-08-08T20:16:36.777Z,9.77
2018-08-08T20:19:05.150Z,9.60
2018-08-08T20:21:32.917Z,9.77
2018-08-08T20:24:01.769Z,10.07
2018-08-08T20:26:29.489Z,9.00
2018-08-08T20:28:57.206Z,8.90
2018-08-08T20:31:24.899Z,9.70
2018-08-08T20:33:52.591Z,10.83
2018-08-08T20:36:20.294Z,8.40
2018-08-08T20:38:47.922Z,8.60
2018-08-08T20:41:15.615Z,9.33
2018-08-08T20:43:43.574Z,9.60
2018-08-08T20:46:11.241Z,10.20
2018-08-08T20:48:38.972Z,9.27
2018-08-08T20:51:06.582Z,9.10
2018-08-08T20:53:34.310Z,9.10
2018-08-08T20:56:02.486Z,7.87
2018-08-08T20:58:30.124Z,9.50
2018-08-08T21:00:57.835Z,8.30
2018-08-08T21:03:25.592Z,9.57
2018-08-08T21:05:53.245Z,9.47
2018-08-08T21:08:20.929Z,10.57
2018-08-08T21:10:48.562Z,9.03
2018-08-08T21:13:16.989Z,9.03
2018-08-08T21:15:44.605Z,8.83
2018-08-08T21:18:12.614Z,9.17
2018-08-08T21:20:40.390Z,9.87
2018-08-08T21:23:08.204Z,8.70
2018-08-08T21:25:36.096Z,9.37
2018-08-08T21:28:03.900Z,10.00
2018-08-08T21:30:31.576Z,7.63
2018-08-08T21:32:59.223Z,8.77
2018-08-08T21:35:26.890Z,8.23
2018-08-08T21:37:54.579Z,7.73
2018-08-08T21:40:22.456Z,8.00
2018-08-08T21:42:50.386Z,7.83
2018-08-08T21:45:18.244Z,6.80
2018-08-08T21:47:45.833Z,7.10
2018-08-08T21:50:13.535Z,6.00
2018-08-08T21:52:41.253Z,6.13
2018-08-08T21:55:15.142Z,6.70
2018-08-08T21:57:48.481Z,6.07
2018-08-08T22:00:21.573Z,5.53
2018-08-08T22:02:55.780Z,5.73
2018-08-08T22:05:29.073Z,6.00
2018-08-08T22:08:08.193Z,6.37
2018-08-08T22:10:41.325Z,5.27
2018-08-08T22:13:14.442Z,5.33
2018-08-08T22:15:48.048Z,5.93
2018-08-08T22:18:27.226Z,5.43
2018-08-08T22:20:55.610Z,6.03
2018-08-08T22:23:23.739Z,4.90
2018-08-08T22:25:51.506Z,5.47
2018-08-08T22:28:19.205Z,5.60
2018-08-08T22:30:46.862Z,5.63
2018-08-08T22:33:15.197Z,5.03
2018-08-08T22:35:43.006Z,5.33
2018-08-08T22:38:10.651Z,5.60
2018-08-08T22:40:38.554Z,5.87
2018-08-08T22:43:06.242Z,6.10
2018-08-08T22:45:34.217Z,5.80
2018-08-08T22:48:01.887Z,5.63
2018-08-08T22:50:29.546Z,5.83
2018-08-08T22:52:57.379Z,6.33
2018-08-08T22:55:25.195Z,5.83
2018-08-08T22:57:52.810Z,5.40
2018-08-08T23:00:20.473Z,5.20
2018-08-08T23:02:48.147Z,5.90
2018-08-08T23:05:15.823Z,5.87
2018-08-08T23:07:43.428Z,6.27
2018-08-08T23:10:11.264Z,6.40
2018-08-08T23:12:38.881Z,6.03
2018-08-08T23:15:07.609Z,6.37
2018-08-08T23:17:35.274Z,7.00
2018-08-08T23:20:03.193Z,6.87
2018-08-08T23:22:36.479Z,6.77
2018-08-08T23:25:04.119Z,7.00
2018-08-08T23:27:32.343Z,9.03
2018-08-08T23:30:00.562Z,7.17
2018-08-08T23:32:28.171Z,7.47
2018-08-08T23:34:55.777Z,8.33
2018-08-08T23:37:23.348Z,7.87
2018-08-08T23:39:51.102Z,9.40
2018-08-08T23:42:18.826Z,8.00
2018-08-08T23:44:46.635Z,9.10
2018-08-08T23:47:14.404Z,8.93
2018-08-08T23:49:42.143Z,8.90
2018-08-08T23:52:09.884Z,9.00
2018-08-08T23:54:37.596Z,9.10
2018-08-08T23:57:05.210Z,8.97
2018-08-08T23:59:32.926Z,9.47
